Cattaraugus, New York
Current Conditions -  °F | °C
As of 1:15 AM on Saturday 29 Nov 2014 (Local Time) from KJHW Reporting Station
Overcast Overcast  
Wind Chill: 10°   Ceiling: 2000
Heat Index: 19°   Visibility: 3mi
Dew Point: 16°   Wind: 7mph
Humidity: 86%   Direction: 170°S
Pressure: 30.12"   Gusts: NA
Location:  42.33°N, 78.87°W
Report Text: KJHW 290615Z 17006KT 3SM BKN020 OVC024 M07/M09 A3012 RMK AO1
Loading
Personal Weather Stations






























Interactive Weather Map New forecast layout! Learn more

10-Day Weather Forecast

Advertisements
Track Severe Weather on mobile